createdAt,value
2024-02-27T00:01:28.017Z,99907.72
2024-02-27T00:03:57.067Z,99908.59
2024-02-27T00:06:25.748Z,99913.03
2024-02-27T00:08:54.479Z,99916.56
2024-02-27T00:11:24.933Z,99926.13
2024-02-27T00:13:53.675Z,99927.91
2024-02-27T00:16:22.372Z,99933.16
2024-02-27T00:18:52.164Z,99940.13
2024-02-27T00:21:22.265Z,99941.91
2024-02-27T00:23:51.765Z,99945.38
2024-02-27T00:26:20.410Z,99948.91
2024-02-27T00:28:49.055Z,99947.16
2024-02-27T00:31:17.815Z,99956.75
2024-02-27T00:33:46.567Z,99952.44
2024-02-27T00:36:16.666Z,99950.69
2024-02-27T00:38:45.271Z,99954.22
2024-02-27T00:41:13.934Z,99946.41
2024-02-27T00:43:42.617Z,99946.50
2024-02-27T00:46:11.245Z,99952.63
2024-02-27T00:48:39.984Z,99955.31
2024-02-27T00:51:08.737Z,99953.63
2024-02-27T00:53:38.496Z,99960.63
2024-02-27T00:56:08.410Z,99964.16
2024-02-27T00:58:37.092Z,99971.16
2024-02-27T01:01:05.994Z,99966.84
2024-02-27T01:03:34.697Z,99980.81
2024-02-27T01:06:05.231Z,99989.53
2024-02-27T01:08:34.015Z,99986.06
2024-02-27T01:11:04.053Z,99991.34
2024-02-27T01:13:32.761Z,99988.75
2024-02-27T01:16:01.371Z,99985.28
2024-02-27T01:18:30.167Z,99988.81
2024-02-27T01:20:59.314Z,99999.28
2024-02-27T01:23:28.076Z,100001.03
2024-02-27T01:25:56.868Z,99998.44
2024-02-27T01:28:26.842Z,100008.03
2024-02-27T01:30:55.442Z,100016.72
2024-02-27T01:33:24.210Z,100014.13
2024-02-27T01:35:52.928Z,100001.13
2024-02-27T01:38:21.582Z,100007.25
2024-02-27T01:40:50.342Z,100009.84
2024-02-27T01:43:23.720Z,100009.88
2024-02-27T01:46:14.586Z,100003.88
2024-02-27T01:48:44.085Z,100016.03
2024-02-27T01:51:14.827Z,100023.91
2024-02-27T01:53:45.786Z,100019.53
2024-02-27T01:56:14.748Z,100029.13
2024-02-27T01:58:42.730Z,100017.84
2024-02-27T02:01:14.802Z,100016.94
2024-02-27T02:03:44.001Z,100016.09
2024-02-27T02:06:12.962Z,100002.25
2024-02-27T02:08:41.709Z,100001.41
2024-02-27T02:11:11.874Z,100009.31
2024-02-27T02:13:41.008Z,99998.03
2024-02-27T02:16:09.832Z,99999.03
2024-02-27T02:18:39.930Z,99998.25
2024-02-27T02:21:10.113Z,100010.47
2024-02-27T02:23:38.750Z,100016.59
2024-02-27T02:26:08.213Z,100026.19
2024-02-27T02:28:37.155Z,100030.56
2024-02-27T02:31:05.982Z,100026.22
2024-02-27T02:33:35.308Z,100031.50
2024-02-27T02:36:04.059Z,100025.41
2024-02-27T02:38:34.129Z,100023.69
2024-02-27T02:41:02.723Z,100028.03
2024-02-27T02:43:31.389Z,100035.03
2024-02-27T02:46:00.148Z,100031.56
2024-02-27T02:48:31.391Z,100046.38
2024-02-27T02:51:00.783Z,100044.63
2024-02-27T02:53:30.692Z,100049.03
2024-02-27T02:56:00.749Z,100062.09
2024-02-27T02:58:30.205Z,100063.81
2024-02-27T03:00:59.031Z,100058.66
2024-02-27T03:03:27.848Z,100064.72
2024-02-27T03:05:56.549Z,100063.88
2024-02-27T03:08:26.225Z,100072.59
2024-02-27T03:10:54.943Z,100070.00
2024-02-27T03:13:25.016Z,100070.88
2024-02-27T03:15:53.663Z,100067.44
2024-02-27T03:18:22.447Z,100069.22
2024-02-27T03:20:51.193Z,100087.50
2024-02-27T03:23:19.791Z,100082.34
2024-02-27T03:25:48.548Z,100078.03
2024-02-27T03:28:17.274Z,100082.41
2024-02-27T03:30:47.479Z,100082.47
2024-02-27T03:33:16.466Z,100085.13
2024-02-27T03:35:45.202Z,100090.41
2024-02-27T03:38:13.887Z,100100.91
2024-02-27T03:40:42.559Z,100088.81
2024-02-27T03:43:11.361Z,100094.09
2024-02-27T03:45:40.199Z,100094.16
2024-02-27T03:48:10.512Z,100105.47
2024-02-27T03:50:39.383Z,100113.31
2024-02-27T03:53:08.288Z,100101.16
2024-02-27T03:55:37.948Z,100107.19
2024-02-27T03:58:06.793Z,100108.94
2024-02-27T04:00:35.867Z,100107.19
2024-02-27T04:03:05.804Z,100114.94
2024-02-27T04:05:35.987Z,100125.38
2024-02-27T04:08:09.324Z,100131.50
2024-02-27T04:10:38.032Z,100138.44
2024-02-27T04:13:06.853Z,100137.56
2024-02-27T04:15:35.690Z,100132.41
2024-02-27T04:18:06.874Z,100138.56
2024-02-27T04:20:37.039Z,100143.88
2024-02-27T04:23:05.974Z,100154.38
2024-02-27T04:25:34.766Z,100153.63
2024-02-27T04:28:03.421Z,100169.34
2024-02-27T04:30:32.052Z,100166.84
2024-02-27T04:33:01.090Z,100179.94
2024-02-27T04:35:30.196Z,100181.78
2024-02-27T04:38:00.189Z,100184.44
2024-02-27T04:40:29.045Z,100181.03
2024-02-27T04:42:58.020Z,100177.59
2024-02-27T04:45:26.653Z,100182.84
2024-02-27T04:47:55.357Z,100178.59
2024-02-27T04:50:24.097Z,100189.06
2024-02-27T04:52:53.168Z,100192.56
2024-02-27T04:55:23.149Z,100197.84
2024-02-27T04:57:51.726Z,100203.09
2024-02-27T05:00:20.590Z,100206.59
2024-02-27T05:02:49.220Z,100207.50
2024-02-27T05:05:17.985Z,100206.66
2024-02-27T05:07:46.622Z,100217.94
2024-02-27T05:10:36.555Z,100223.13
2024-02-27T05:13:29.027Z,100232.69
2024-02-27T05:16:09.685Z,100230.94
2024-02-27T05:18:40.342Z,100230.06
2024-02-27T05:21:09.209Z,100236.16
2024-02-27T05:23:38.189Z,100243.97
2024-02-27T05:26:08.215Z,100252.66
2024-02-27T05:28:37.561Z,100249.22
2024-02-27T05:31:24.786Z,100252.75
2024-02-27T05:33:53.756Z,100251.91
2024-02-27T05:36:22.965Z,100251.97
2024-02-27T05:38:52.425Z,100257.22
2024-02-27T05:41:23.233Z,100258.97
2024-02-27T05:43:52.013Z,100262.50
2024-02-27T05:46:20.706Z,100267.81
2024-02-27T05:48:49.561Z,100267.81
2024-02-27T05:51:21.114Z,100271.34
2024-02-27T05:53:49.992Z,100267.06
2024-02-27T05:56:22.046Z,100282.69
2024-02-27T05:58:53.635Z,100276.66
2024-02-27T06:01:22.355Z,100278.41
2024-02-27T06:03:51.071Z,100288.88
2024-02-27T06:06:19.895Z,100288.88
2024-02-27T06:08:48.269Z,100296.72
2024-02-27T06:11:16.752Z,100293.25
2024-02-27T06:13:45.979Z,100296.75
2024-02-27T06:16:16.048Z,100287.22
2024-02-27T06:18:47.351Z,100290.72
2024-02-27T06:21:33.921Z,100288.13
2024-02-27T06:24:02.926Z,100285.53
2024-02-27T06:26:31.557Z,100290.72
2024-02-27T06:29:00.492Z,100297.69
2024-02-27T06:31:30.525Z,100304.63
2024-02-27T06:33:59.286Z,100308.13
2024-02-27T06:36:28.412Z,100308.16
2024-02-27T06:38:57.977Z,100317.72
2024-02-27T06:41:26.917Z,100314.22
2024-02-27T06:43:55.513Z,100315.13
2024-02-27T06:46:24.600Z,100314.25
2024-02-27T06:49:03.712Z,100326.41
2024-02-27T06:51:42.436Z,100332.50
2024-02-27T06:54:11.236Z,100334.28
2024-02-27T06:56:40.197Z,100335.16
2024-02-27T06:59:08.950Z,100344.66
2024-02-27T07:01:37.573Z,100341.22
2024-02-27T07:04:07.838Z,100342.06
2024-02-27T07:06:37.240Z,100342.06
2024-02-27T07:09:06.003Z,100335.97
2024-02-27T07:11:34.886Z,100341.16
2024-02-27T07:14:03.798Z,100348.06
2024-02-27T07:16:32.404Z,100344.59
2024-02-27T07:19:01.153Z,100346.28
2024-02-27T07:21:31.271Z,100360.16
2024-02-27T07:23:59.950Z,100367.06
2024-02-27T07:26:29.405Z,100367.09
2024-02-27T07:28:58.053Z,100373.13
2024-02-27T07:31:26.678Z,100371.41
2024-02-27T07:33:57.071Z,100368.78
2024-02-27T07:36:25.875Z,100371.38
2024-02-27T07:38:55.957Z,100372.19
2024-02-27T07:41:24.792Z,100372.16
2024-02-27T07:43:54.540Z,100370.44
2024-02-27T07:46:23.363Z,100363.44
2024-02-27T07:48:51.988Z,100364.19
2024-02-27T07:51:39.216Z,100366.72
2024-02-27T07:54:09.302Z,100367.28
2024-02-27T07:56:38.012Z,100369.28
2024-02-27T07:59:06.662Z,100366.72
2024-02-27T08:01:35.311Z,100363.41
2024-02-27T08:04:05.342Z,100369.28
2024-02-27T08:06:34.440Z,100371.69
2024-02-27T08:09:03.180Z,100378.16
2024-02-27T08:11:33.255Z,100374.22
2024-02-27T08:14:04.019Z,100368.78
2024-02-27T08:16:33.390Z,100372.53
2024-02-27T08:19:05.590Z,100377.22
2024-02-27T08:21:34.860Z,100384.31
2024-02-27T08:24:04.039Z,100383.41
2024-02-27T08:26:34.182Z,100372.13
2024-02-27T08:29:02.826Z,100380.91
2024-02-27T08:31:31.504Z,100386.31
2024-02-27T08:34:04.509Z,100393.47
2024-02-27T08:36:34.349Z,100395.38
2024-02-27T08:39:03.406Z,100394.50
2024-02-27T08:41:34.653Z,100395.06
2024-02-27T08:44:03.308Z,100401.16
2024-02-27T08:46:32.675Z,100394.53
2024-02-27T08:49:01.555Z,100385.19
2024-02-27T08:51:30.387Z,100391.41
2024-02-27T08:53:59.182Z,100389.59
2024-02-27T08:56:28.021Z,100383.69
2024-02-27T08:58:58.034Z,100378.47
2024-02-27T09:01:26.732Z,100381.38
2024-02-27T09:03:55.656Z,100393.00
2024-02-27T09:06:24.403Z,100391.97
2024-02-27T09:08:53.124Z,100389.69
2024-02-27T09:11:21.895Z,100391.53
2024-02-27T09:13:50.529Z,100390.56
2024-02-27T09:16:20.486Z,100388.94
2024-02-27T09:18:49.189Z,100388.41
2024-02-27T09:21:18.580Z,100392.63
2024-02-27T09:23:47.241Z,100393.94
2024-02-27T09:26:15.900Z,100396.88
2024-02-27T09:28:44.572Z,100401.97
2024-02-27T09:31:19.994Z,100407.75
2024-02-27T09:33:54.041Z,100421.31
2024-02-27T09:36:22.873Z,100417.88
2024-02-27T09:38:51.595Z,100425.66
2024-02-27T09:41:30.195Z,100426.00
2024-02-27T09:43:58.888Z,100434.22
2024-02-27T09:46:29.594Z,100441.34
2024-02-27T09:49:02.068Z,100430.63
2024-02-27T09:51:32.067Z,100422.97
2024-02-27T09:54:03.592Z,100417.59
2024-02-27T09:56:34.031Z,100409.59
2024-02-27T09:59:04.062Z,100410.84
2024-02-27T10:01:37.559Z,100411.53
2024-02-27T10:04:08.443Z,100407.25
2024-02-27T10:06:37.620Z,100407.34
2024-02-27T10:09:08.191Z,100405.06
2024-02-27T10:11:37.669Z,100403.94
2024-02-27T10:14:15.277Z,100412.44
2024-02-27T10:16:44.212Z,100408.19
2024-02-27T10:19:14.070Z,100413.38
2024-02-27T10:21:42.751Z,100421.78
2024-02-27T10:24:11.450Z,100418.78
2024-02-27T10:26:40.216Z,100413.75
2024-02-27T10:29:09.331Z,100417.56
2024-02-27T10:31:40.024Z,100421.41
2024-02-27T10:34:09.686Z,100425.50
2024-02-27T10:36:41.846Z,100425.81
2024-02-27T10:39:11.202Z,100418.72
2024-02-27T10:41:42.719Z,100427.97
2024-02-27T10:44:14.573Z,100428.16
2024-02-27T10:46:43.902Z,100429.25
2024-02-27T10:49:14.154Z,100436.19
2024-02-27T10:51:45.599Z,100430.59
2024-02-27T10:54:17.943Z,100426.66
2024-02-27T10:56:48.303Z,100421.00
2024-02-27T10:59:16.702Z,100422.00
2024-02-27T11:01:48.328Z,100406.22
2024-02-27T11:04:20.898Z,100414.34
2024-02-27T11:06:54.046Z,100414.78
2024-02-27T11:09:28.048Z,100415.38
2024-02-27T11:12:00.900Z,100417.16
2024-02-27T11:14:30.516Z,100424.88
2024-02-27T11:17:07.583Z,100425.88
2024-02-27T11:19:39.437Z,100420.25
2024-02-27T11:22:11.088Z,100419.56
2024-02-27T11:24:41.173Z,100412.19
2024-02-27T11:27:10.988Z,100414.84
2024-02-27T11:29:39.708Z,100418.91
2024-02-27T11:32:08.660Z,100410.06
2024-02-27T11:34:37.560Z,100409.25
2024-02-27T11:37:15.448Z,100410.47
2024-02-27T11:39:44.711Z,100414.56
2024-02-27T11:42:23.356Z,100404.56
2024-02-27T11:45:10.016Z,100399.31
2024-02-27T11:47:48.605Z,100403.69
2024-02-27T11:50:47.259Z,100407.22
2024-02-27T11:53:39.234Z,100416.06
2024-02-27T11:56:10.596Z,100409.56
2024-02-27T11:58:39.492Z,100397.63
2024-02-27T12:01:14.523Z,100399.16
2024-02-27T12:03:45.722Z,100398.38
2024-02-27T12:06:14.608Z,100396.34
2024-02-27T12:08:51.466Z,100397.56
2024-02-27T12:11:22.212Z,100398.75
2024-02-27T12:13:51.735Z,100399.78
2024-02-27T12:16:27.856Z,100397.84
2024-02-27T12:18:59.622Z,100394.59
2024-02-27T12:21:32.655Z,100396.13
2024-02-27T12:24:17.142Z,100394.59
2024-02-27T12:26:47.715Z,100374.22
2024-02-27T12:29:17.769Z,100378.31
2024-02-27T12:31:46.505Z,100377.97
2024-02-27T12:34:15.128Z,100370.97
2024-02-27T12:36:44.190Z,100368.75
2024-02-27T12:39:14.913Z,100372.94
2024-02-27T12:41:43.935Z,100364.44
2024-02-27T12:44:12.640Z,100370.47
2024-02-27T12:46:41.125Z,100371.63
2024-02-27T12:49:11.025Z,100368.78
2024-02-27T12:51:39.988Z,100368.78
2024-02-27T12:54:09.114Z,100372.56
2024-02-27T12:56:39.908Z,100373.50
2024-02-27T12:59:11.079Z,100373.16
2024-02-27T13:01:41.392Z,100365.03
2024-02-27T13:04:10.401Z,100371.91
2024-02-27T13:06:39.518Z,100375.75
2024-02-27T13:09:08.533Z,100368.22
2024-02-27T13:11:44.413Z,100372.28
2024-02-27T13:14:13.147Z,100370.72
2024-02-27T13:16:41.774Z,100369.25
2024-02-27T13:19:10.358Z,100375.09
2024-02-27T13:21:41.887Z,100374.00
2024-02-27T13:24:11.328Z,100364.66
2024-02-27T13:26:41.684Z,100367.09
2024-02-27T13:29:10.395Z,100363.88
2024-02-27T13:31:39.194Z,100356.53
2024-02-27T13:34:08.070Z,100354.84
2024-02-27T13:36:36.784Z,100357.94
2024-02-27T13:39:06.832Z,100367.56
2024-02-27T13:41:35.496Z,100361.09
2024-02-27T13:44:05.684Z,100359.19
2024-02-27T13:46:34.419Z,100357.84
2024-02-27T13:49:03.320Z,100348.00
2024-02-27T13:51:32.120Z,100354.00
2024-02-27T13:54:00.883Z,100351.03
2024-02-27T13:56:29.547Z,100357.44
2024-02-27T13:58:58.398Z,100352.50
2024-02-27T14:01:28.540Z,100357.31
2024-02-27T14:03:57.375Z,100348.34
2024-02-27T14:06:26.084Z,100340.00
2024-02-27T14:08:54.528Z,100344.44
2024-02-27T14:11:23.238Z,100335.03
2024-02-27T14:13:54.600Z,100333.97
2024-02-27T14:16:25.148Z,100343.16
2024-02-27T14:18:55.038Z,100336.81
2024-02-27T14:21:23.880Z,100342.09
2024-02-27T14:23:52.606Z,100339.91
2024-02-27T14:26:21.357Z,100346.03
2024-02-27T14:28:50.001Z,100340.22
2024-02-27T14:31:18.688Z,100353.91
2024-02-27T14:33:47.547Z,100345.06
2024-02-27T14:36:17.758Z,100350.38
2024-02-27T14:38:46.519Z,100341.31
2024-02-27T14:41:15.396Z,100336.47
2024-02-27T14:43:44.657Z,100336.56
2024-02-27T14:46:13.278Z,100337.66
2024-02-27T14:48:41.939Z,100343.53
2024-02-27T14:51:11.025Z,100342.25
2024-02-27T14:53:41.148Z,100339.34
2024-02-27T14:56:09.813Z,100335.72
2024-02-27T14:58:38.188Z,100340.06
2024-02-27T15:01:08.583Z,100337.72
2024-02-27T15:03:37.873Z,100341.44
2024-02-27T15:06:07.614Z,100336.16
2024-02-27T15:08:36.389Z,100339.56
2024-02-27T15:11:06.540Z,100336.88
2024-02-27T15:13:35.260Z,100351.78
2024-02-27T15:16:04.030Z,100351.88
2024-02-27T15:18:32.820Z,100357.06
2024-02-27T15:21:05.730Z,100354.78
2024-02-27T15:23:34.445Z,100348.31
2024-02-27T15:26:03.053Z,100354.56
2024-02-27T15:28:32.786Z,100361.56
2024-02-27T15:31:01.633Z,100359.97
2024-02-27T15:33:30.370Z,100357.25
2024-02-27T15:35:59.045Z,100357.22
2024-02-27T15:38:27.707Z,100367.03
2024-02-27T15:40:56.065Z,100367.66
2024-02-27T15:43:25.048Z,100363.38
2024-02-27T15:45:55.066Z,100374.34
2024-02-27T15:48:23.949Z,100380.09
2024-02-27T15:50:53.090Z,100385.97
2024-02-27T15:53:21.880Z,100387.41
2024-02-27T15:55:50.479Z,100400.09
2024-02-27T15:58:19.203Z,100399.84
2024-02-27T16:00:47.833Z,100410.97
2024-02-27T16:03:26.020Z,100405.09
2024-02-27T16:05:58.332Z,100411.50
2024-02-27T16:08:27.096Z,100408.22
2024-02-27T16:10:55.807Z,100418.97
2024-02-27T16:13:24.573Z,100422.84
2024-02-27T16:15:53.489Z,100427.75
2024-02-27T16:18:23.784Z,100430.03
2024-02-27T16:20:52.688Z,100441.34
2024-02-27T16:23:26.371Z,100434.03
2024-02-27T16:25:55.646Z,100441.75
2024-02-27T16:28:24.230Z,100446.78
2024-02-27T16:30:53.008Z,100450.28
2024-02-27T16:33:23.263Z,100464.25
2024-02-27T16:35:51.776Z,100471.22
2024-02-27T16:38:20.144Z,100475.47
2024-02-27T16:40:48.822Z,100476.09
2024-02-27T16:43:17.444Z,100477.47
2024-02-27T16:45:46.140Z,100479.69
2024-02-27T16:48:14.838Z,100482.84
2024-02-27T16:50:44.968Z,100485.91
2024-02-27T16:53:13.810Z,100490.69
2024-02-27T16:55:42.538Z,100497.19
2024-02-27T16:58:11.259Z,100504.53
2024-02-27T17:00:40.135Z,100505.81
2024-02-27T17:03:09.020Z,100512.22
2024-02-27T17:05:37.735Z,100501.19
2024-02-27T17:08:08.690Z,100502.38
2024-02-27T17:10:37.415Z,100505.25
2024-02-27T17:13:06.010Z,100510.78
2024-02-27T17:15:34.745Z,100512.75
2024-02-27T17:18:03.879Z,100524.38
2024-02-27T17:20:32.712Z,100518.53
2024-02-27T17:23:03.574Z,100529.19
2024-02-27T17:25:33.280Z,100539.84
2024-02-27T17:28:01.871Z,100541.78
2024-02-27T17:30:31.193Z,100539.31
2024-02-27T17:32:59.937Z,100543.88
2024-02-27T17:35:28.660Z,100553.59
2024-02-27T17:37:57.425Z,100559.84
2024-02-27T17:40:26.982Z,100563.53
2024-02-27T17:42:57.265Z,100556.72
2024-02-27T17:45:25.984Z,100564.75
2024-02-27T17:47:54.622Z,100570.97
2024-02-27T17:50:23.432Z,100578.09
2024-02-27T17:52:52.029Z,100575.59
2024-02-27T17:55:20.752Z,100574.81
2024-02-27T17:57:49.499Z,100582.75
2024-02-27T18:00:20.124Z,100584.59
2024-02-27T18:02:48.768Z,100590.84
2024-02-27T18:05:18.117Z,100589.19
2024-02-27T18:07:46.891Z,100598.03
2024-02-27T18:10:18.209Z,100607.66
2024-02-27T18:12:47.949Z,100603.44
2024-02-27T18:15:18.648Z,100606.13
2024-02-27T18:17:48.703Z,100607.06
2024-02-27T18:20:18.615Z,100609.75
2024-02-27T18:22:47.490Z,100611.56
2024-02-27T18:25:16.219Z,100609.94
2024-02-27T18:27:44.932Z,100616.09
2024-02-27T18:30:14.240Z,100613.53
2024-02-27T18:32:43.982Z,100616.22
2024-02-27T18:35:13.443Z,100609.28
2024-02-27T18:37:42.294Z,100615.44
2024-02-27T18:40:11.544Z,100619.81
2024-02-27T18:42:40.189Z,100613.84
2024-02-27T18:45:09.754Z,100619.97
2024-02-27T18:47:38.432Z,100614.81
2024-02-27T18:50:09.589Z,100614.88
2024-02-27T18:52:38.283Z,100613.22
2024-02-27T18:55:07.074Z,100615.00
2024-02-27T18:57:38.468Z,100618.56
2024-02-27T19:00:09.080Z,100624.72
2024-02-27T19:02:37.807Z,100620.47
2024-02-27T19:05:08.435Z,100624.03
2024-02-27T19:07:37.228Z,100628.44
2024-02-27T19:10:07.157Z,100632.84
2024-02-27T19:12:36.278Z,100628.56
2024-02-27T19:15:05.314Z,100627.78
2024-02-27T19:17:34.250Z,100633.13
2024-02-27T19:20:03.591Z,100641.91
2024-02-27T19:22:33.684Z,100642.88
2024-02-27T19:25:03.856Z,100642.06
2024-02-27T19:27:32.743Z,100653.44
2024-02-27T19:30:01.361Z,100656.09
2024-02-27T19:32:29.998Z,100656.13
2024-02-27T19:34:58.621Z,100651.84
2024-02-27T19:37:27.244Z,100658.81
2024-02-27T19:39:57.055Z,100665.84
2024-02-27T19:42:25.434Z,100663.28
2024-02-27T19:44:54.290Z,100676.41
2024-02-27T19:47:22.973Z,100679.94
2024-02-27T19:49:52.274Z,100673.06
2024-02-27T19:52:20.984Z,100682.66
2024-02-27T19:54:49.694Z,100692.28
2024-02-27T19:57:22.136Z,100694.09
2024-02-27T19:59:51.049Z,100701.97
2024-02-27T20:02:20.992Z,100702.00
2024-02-27T20:04:49.955Z,100710.75
2024-02-27T20:07:20.278Z,100703.84
2024-02-27T20:09:49.063Z,100703.88
2024-02-27T20:12:19.204Z,100704.78
2024-02-27T20:14:47.925Z,100703.09
2024-02-27T20:17:16.577Z,100715.28
2024-02-27T20:19:45.368Z,100718.84
2024-02-27T20:22:14.040Z,100713.66
2024-02-27T20:24:45.858Z,100714.59
2024-02-27T20:27:14.757Z,100711.13
2024-02-27T20:29:55.893Z,100714.63
2024-02-27T20:32:28.384Z,100718.16
2024-02-27T20:34:57.137Z,100712.97
2024-02-27T20:37:25.901Z,100714.75
2024-02-27T20:39:55.182Z,100717.41
2024-02-27T20:42:24.182Z,100721.78
2024-02-27T20:44:55.222Z,100724.44
2024-02-27T20:47:23.917Z,100729.69
2024-02-27T20:49:52.608Z,100736.69
2024-02-27T20:52:21.327Z,100739.28
2024-02-27T20:54:50.032Z,100741.06
2024-02-27T20:57:18.762Z,100751.53
2024-02-27T20:59:47.454Z,100755.03
2024-02-27T21:02:18.898Z,100745.53
2024-02-27T21:04:48.866Z,100746.38
2024-02-27T21:07:17.889Z,100752.47
2024-02-27T21:09:46.639Z,100746.41
2024-02-27T21:12:15.330Z,100758.63
2024-02-27T21:14:44.089Z,100750.81
2024-02-27T21:17:13.050Z,100755.16
2024-02-27T21:19:43.145Z,100766.50
2024-02-27T21:22:11.750Z,100769.13
2024-02-27T21:24:40.383Z,100768.28
2024-02-27T21:27:09.356Z,100770.91
2024-02-27T21:29:38.047Z,100777.00
2024-02-27T21:32:07.032Z,100775.31
2024-02-27T21:34:35.707Z,100779.66
2024-02-27T21:37:07.683Z,100792.72
2024-02-27T21:39:36.364Z,100786.66
2024-02-27T21:42:05.707Z,100784.91
2024-02-27T21:44:34.746Z,100788.41
2024-02-27T21:47:03.932Z,100797.13
2024-02-27T21:49:32.609Z,100794.53
2024-02-27T21:52:03.684Z,100797.16
2024-02-27T21:54:34.522Z,100796.28
2024-02-27T21:57:03.167Z,100802.38
2024-02-27T21:59:31.755Z,100810.22
2024-02-27T22:02:00.459Z,100807.59
2024-02-27T22:04:29.511Z,100812.81
2024-02-27T22:06:58.169Z,100800.69
2024-02-27T22:09:26.886Z,100805.06
2024-02-27T22:11:56.936Z,100805.94
2024-02-27T22:14:25.552Z,100819.00
2024-02-27T22:16:54.148Z,100812.91
2024-02-27T22:19:22.721Z,100819.00
2024-02-27T22:21:51.587Z,100821.63
2024-02-27T22:24:20.623Z,100822.53
2024-02-27T22:26:49.294Z,100826.88
2024-02-27T22:29:19.290Z,100828.59
2024-02-27T22:31:47.925Z,100832.97
2024-02-27T22:34:16.331Z,100835.56
2024-02-27T22:36:45.384Z,100827.78
2024-02-27T22:39:14.166Z,100828.63
2024-02-27T22:41:43.047Z,100828.63
2024-02-27T22:44:11.644Z,100835.59
2024-02-27T22:46:41.650Z,100833.88
2024-02-27T22:49:10.044Z,100836.50
2024-02-27T22:51:39.802Z,100837.38
2024-02-27T22:54:08.637Z,100831.28
2024-02-27T22:56:37.251Z,100847.78
2024-02-27T22:59:05.910Z,100849.53
2024-02-27T23:01:34.622Z,100844.31
2024-02-27T23:04:04.624Z,100849.53
2024-02-27T23:06:34.510Z,100847.84
2024-02-27T23:09:04.418Z,100844.31
2024-02-27T23:11:33.077Z,100843.47
2024-02-27T23:14:06.387Z,100845.19
2024-02-27T23:16:36.441Z,100852.16
2024-02-27T23:19:06.795Z,100854.78
2024-02-27T23:21:34.456Z,100864.31
2024-02-27T23:24:03.071Z,100866.03
2024-02-27T23:26:31.866Z,100872.13
2024-02-27T23:29:00.473Z,100875.63
2024-02-27T23:31:29.119Z,100879.06
2024-02-27T23:33:57.894Z,100873.88
2024-02-27T23:36:28.027Z,100868.66
2024-02-27T23:38:56.656Z,100878.22
2024-02-27T23:41:25.292Z,100876.47
2024-02-27T23:43:53.909Z,100879.94
2024-02-27T23:46:22.567Z,100886.00
2024-02-27T23:48:51.709Z,100879.94
2024-02-27T23:51:21.884Z,100882.53
2024-02-27T23:53:51.850Z,100880.78
2024-02-27T23:56:20.463Z,100878.19
2024-02-27T23:58:49.096Z,100891.16
